METAR Data
IDs: Format: Raw Decoded Include TAF

Data at: 0700 UTC 03 Aug 2021

KMOD 030653Z AUTO 36005KT 10SM CLR 23/06 A2995 RMK AO2 SLP142 T02280061
KMOD 030553Z AUTO 32009KT 10SM CLR 24/03 A2995 RMK AO2 SLP140 T02440033 10333 20244 50003
KMOD 030453Z AUTO 32008KT 10SM CLR 26/08 A2995 RMK AO2 SLP141 T02610083
KMOD 030353Z 31008KT 6SM HZ CLR 27/05 A2994 RMK AO2 SLP138 T02720050
KMOD 030253Z 33009KT 10SM CLR 29/06 A2994 RMK AO2 SLP136 T02940061 56008
KMOD 030153Z 33013KT 7SM CLR 32/06 A2994 RMK AO2 SLP137 T03170056
KMOD 030053Z 33011KT 10SM CLR 33/02 A2995 RMK AO2 SLP141 T03280017
KMOD 022353Z 31010KT 10SM CLR 32/09 A2996 RMK AO2 SLP144 T03220094 10328 20233 58019
KMOD 022253Z 32011KT 10SM CLR 32/09 A2998 RMK AO2 SLP151 T03170089
KMOD 022153Z 33009KT 290V350 10SM CLR 30/11 A3000 RMK AO2 SLP157 T03000106
KMOD 022053Z 31008KT 10SM CLR 29/11 A3002 RMK AO2 SLP163 T02940111 58016
KMOD 021953Z 31004KT 10SM CLR 27/12 A3004 RMK AO2 SLP170 T02720117
KMOD 021853Z 32006KT 10SM CLR 25/12 A3005 RMK AO2 SLP175 T02500117
KMOD 021753Z 33007KT 10SM CLR 24/12 A3006 RMK AO2 SLP179 T02390117 10239 20150 58004
KMOD 021653Z 32006KT 10SM CLR 21/11 A3007 RMK AO2 SLP181 T02110111
KMOD 021553Z 33010KT 10SM CLR 19/11 A3007 RMK AO2 SLP182 T01890111
KMOD 021453Z 33008KT 6SM HZ CLR 17/12 A3008 RMK AO2 SLP184 T01670117 53016
KMOD 021353Z COR 35010KT 6SM HZ SCT080 15/11 A3006 RMK AO2 SLP178 T01500111
KMOD 021253Z 34006KT 6SM HZ CLR 15/11 A3005 RMK AO2 SLP174 T01500111
KMOD 021153Z 35009KT 10SM CLR 16/11 A3003 RMK AO2 SLP168 T01560111 10211 20156 53005
KMOD 021053Z AUTO 35008KT 10SM CLR 16/11 A3002 RMK AO2 SLP163 T01560111
KMOD 020953Z AUTO 35010KT 10SM CLR 17/11 A3002 RMK AO2 SLP163 T01670111
KMOD 020853Z AUTO 33006KT 10SM CLR 17/11 A3002 RMK AO2 SLP163 T01720111 51007
KMOD 020753Z AUTO 34006KT 10SM CLR 18/11 A3001 RMK AO2 SLP160 T01830106 403500183
KMOD 020653Z AUTO 34011KT 10SM CLR 19/11 A3001 RMK AO2 SLP159 T01940106
KMOD 020553Z AUTO 34011KT 10SM CLR 21/10 A2999 RMK AO2 SLP155 T02110100 10339 20211 51019
KMOD 020453Z AUTO 34009KT 10SM CLR 23/09 A2999 RMK AO2 SLP152 T02330094
KMOD 020353Z 33012KT 10SM CLR 26/11 A2995 RMK AO2 SLP142 T02610106
KMOD 020253Z 33013KT 10SM CLR 28/12 A2994 RMK AO2 SLP136 T02830117 53005
KMOD 020153Z 33014KT 10SM CLR 31/11 A2992 RMK AO2 SLP132 T03110106
KMOD 020053Z 35012KT 10SM CLR 33/11 A2992 RMK AO2 SLP131 T03330106
KMOD 012353Z 32010KT 10SM CLR 34/11 A2992 RMK AO2 SLP131 T03390111 10350 20267 56014
KMOD 012253Z 34008KT 10SM CLR 33/09 A2993 RMK AO2 SLP135 T03330094
KMOD 012153Z 35006KT 10SM CLR 33/10 A2995 RMK AO2 SLP139 T03330100
KMOD 012053Z VRB04KT 10SM CLR 32/09 A2996 RMK AO2 SLP145 T03220094 58015
KMOD 011953Z VRB06KT 10SM CLR 31/09 A2998 RMK AO2 SLP151 T03110094